Time;durP1;ratioP1;P1;durP2;ratioP2;P2;SDS_P1;SDS_P2;PMS_P1;PMS_P2;Temp;Humidity;BMP_temperature;BMP_pressure;BME280_temperature;BME280_humidity;BME280_pressure;Samples;Min_cycle;Max_cycle;Signal;HPM_P1;HPM_P2
2024/02/09 00:00:17;;;;;;;11.20;5.40;;;2.80;99.90;;;;;;5054226;28;20040;-64
2024/02/09 00:02:43;;;;;;;7.90;5.07;;;2.90;99.90;;;;;;5046086;28;20505;-64
2024/02/09 00:05:13;;;;;;;8.50;5.23;;;2.90;99.90;;;;;;5058846;28;20116;-64
2024/02/09 00:07:40;;;;;;;7.90;5.10;;;2.90;99.90;;;;;;5048703;28;20257;-64
2024/02/09 00:10:06;;;;;;;7.85;5.25;;;2.90;99.90;;;;;;5055940;28;20071;-65
2024/02/09 00:12:34;;;;;;;8.98;5.63;;;2.90;99.90;;;;;;5045197;28;20120;-64
2024/02/09 00:15:04;;;;;;;8.80;5.05;;;2.90;99.90;;;;;;5048412;28;20396;-64
2024/02/09 00:17:32;;;;;;;9.55;5.45;;;2.90;99.90;;;;;;5034489;28;20037;-64
2024/02/09 00:19:58;;;;;;;8.43;5.20;;;2.90;99.90;;;;;;5056262;28;20029;-65
2024/02/09 00:22:25;;;;;;;9.77;5.70;;;2.90;99.90;;;;;;5055199;28;20037;-64
2024/02/09 00:24:51;;;;;;;9.25;5.85;;;2.90;99.90;;;;;;5050935;28;20033;-65
2024/02/09 00:27:16;;;;;;;9.82;5.88;;;2.90;99.90;;;;;;5051295;28;20307;-64
2024/02/09 00:29:42;;;;;;;9.15;5.57;;;2.90;99.90;;;;;;5042049;28;20029;-65
2024/02/09 00:32:08;;;;;;;10.18;6.38;;;2.90;99.90;;;;;;5045067;28;20083;-65
2024/02/09 00:34:34;;;;;;;10.65;6.40;;;3.10;99.90;;;;;;5050111;28;20493;-65
2024/02/09 00:37:01;;;;;;;10.02;5.97;;;2.90;99.90;;;;;;5053824;28;20032;-64
2024/02/09 00:39:33;;;;;;;12.15;6.57;;;2.90;99.90;;;;;;5058632;28;20193;-64
2024/02/09 00:42:00;;;;;;;10.77;6.55;;;2.90;99.90;;;;;;5048376;28;20045;-65
2024/02/09 00:44:25;;;;;;;10.57;6.47;;;2.90;99.90;;;;;;5063155;28;20051;-64
2024/02/09 00:46:51;;;;;;;12.02;6.25;;;3.20;99.90;;;;;;5045603;28;20032;-64
2024/02/09 00:49:18;;;;;;;10.70;6.93;;;2.90;99.90;;;;;;5057377;28;20041;-64
2024/02/09 00:51:44;;;;;;;11.48;6.82;;;2.90;99.90;;;;;;5026977;28;20881;-64
2024/02/09 00:54:14;;;;;;;12.80;7.22;;;2.90;99.90;;;;;;5032354;28;20045;-65
2024/02/09 00:56:41;;;;;;;10.50;6.60;;;3.00;99.90;;;;;;5036588;28;20437;-64
2024/02/09 00:59:06;;;;;;;11.38;6.90;;;3.00;99.90;;;;;;5048152;28;20127;-64
2024/02/09 01:01:32;;;;;;;12.20;7.45;;;3.00;99.90;;;;;;5045900;28;20073;-65
2024/02/09 01:04:00;;;;;;;13.30;7.50;;;3.00;99.90;;;;;;5049975;28;20032;-65
2024/02/09 01:06:26;;;;;;;12.65;7.70;;;3.00;99.90;;;;;;5063174;28;20040;-64
2024/02/09 01:08:52;;;;;;;12.95;7.97;;;3.00;99.90;;;;;;5053052;28;20048;-65
2024/02/09 01:11:18;;;;;;;12.93;7.70;;;3.00;99.90;;;;;;5030702;28;20040;-65
2024/02/09 02:46:30;;;;;;;13.55;7.93;;;3.30;99.90;;;;;;5054391;28;20045;-64
2024/02/09 03:05:25;;;;;;;16.05;8.70;;;3.40;99.90;;;;;;5054754;28;20081;-66
2024/02/09 03:07:56;;;;;;;18.10;9.30;;;3.40;99.90;;;;;;5061168;28;20500;-64
2024/02/09 03:10:22;;;;;;;16.67;9.38;;;3.40;99.90;;;;;;5051505;28;20041;-65
2024/02/09 03:12:49;;;;;;;17.27;9.70;;;3.40;99.90;;;;;;5053268;28;20033;-65
2024/02/09 03:15:15;;;;;;;20.80;10.75;;;3.40;99.90;;;;;;5051289;28;20037;-64
2024/02/09 03:17:43;;;;;;;20.33;10.57;;;3.40;99.90;;;;;;5062196;28;20051;-65
2024/02/09 03:20:10;;;;;;;19.48;10.35;;;3.40;99.90;;;;;;5057241;28;20049;-64
2024/02/09 03:22:36;;;;;;;21.77;11.18;;;3.50;99.90;;;;;;5062035;28;20110;-65
2024/02/09 03:25:04;;;;;;;21.27;11.25;;;3.40;99.90;;;;;;5055525;28;20055;-65
2024/02/09 03:27:34;;;;;;;21.77;11.65;;;3.50;99.90;;;;;;5052565;28;20382;-64
2024/02/09 03:30:01;;;;;;;19.77;10.63;;;3.50;99.90;;;;;;5061766;28;20246;-65
2024/02/09 03:32:28;;;;;;;18.65;10.52;;;3.50;99.90;;;;;;5051598;28;20504;-64
2024/02/09 03:34:54;;;;;;;21.33;11.45;;;3.50;99.90;;;;;;5057687;28;20559;-64
2024/02/09 03:37:26;;;;;;;18.65;11.05;;;3.50;99.90;;;;;;5055282;28;20040;-64
2024/02/09 03:39:59;;;;;;;21.67;11.13;;;3.50;99.90;;;;;;5043121;28;20051;-64
2024/02/09 03:42:25;;;;;;;19.45;10.15;;;3.60;99.90;;;;;;5063276;28;20090;-65
2024/02/09 03:44:54;;;;;;;22.05;11.85;;;3.60;99.90;;;;;;5061350;28;20466;-65
2024/02/09 03:47:22;;;;;;;19.50;10.65;;;3.60;99.90;;;;;;5049672;28;20033;-64
2024/02/09 03:49:49;;;;;;;21.00;10.95;;;3.60;99.90;;;;;;5053167;28;20041;-64
2024/02/09 03:52:15;;;;;;;20.75;11.40;;;3.60;99.90;;;;;;5060375;28;20492;-65
2024/02/09 03:54:41;;;;;;;20.48;11.40;;;3.60;99.90;;;;;;5053173;28;20041;-65
2024/02/09 03:57:07;;;;;;;22.33;11.65;;;3.60;99.90;;;;;;5045130;28;20512;-64
2024/02/09 03:59:33;;;;;;;24.00;11.80;;;3.70;99.90;;;;;;5039841;28;20033;-64
2024/02/09 04:02:04;;;;;;;21.88;11.85;;;3.60;99.90;;;;;;5052052;28;20571;-64
2024/02/09 04:04:30;;;;;;;20.50;10.75;;;3.70;99.90;;;;;;5049854;28;20045;-64
2024/02/09 04:06:56;;;;;;;22.13;12.05;;;3.70;99.90;;;;;;5062475;28;20032;-65
2024/02/09 04:09:21;;;;;;;21.00;11.57;;;3.70;99.90;;;;;;5053039;28;20041;-65
2024/02/09 04:11:47;;;;;;;19.95;10.85;;;3.70;99.90;;;;;;5048486;28;20063;-65
2024/02/09 04:14:16;;;;;;;21.05;10.80;;;3.70;99.90;;;;;;5059748;28;20447;-64
2024/02/09 04:16:42;;;;;;;23.17;11.38;;;3.80;99.90;;;;;;5035895;28;20103;-65
2024/02/09 04:19:07;;;;;;;23.20;11.80;;;3.80;99.90;;;;;;5055672;28;20091;-65
2024/02/09 04:21:33;;;;;;;22.15;11.90;;;3.80;99.90;;;;;;5055896;28;20535;-64
2024/02/09 04:23:59;;;;;;;21.55;11.18;;;3.80;99.90;;;;;;5057198;28;20044;-64
2024/02/09 04:26:24;;;;;;;22.38;11.70;;;3.80;99.90;;;;;;5039391;28;20037;-64
2024/02/09 04:28:54;;;;;;;23.73;12.35;;;3.80;99.90;;;;;;5044401;28;20049;-65
2024/02/09 04:31:20;;;;;;;21.33;11.88;;;3.80;99.90;;;;;;5055207;28;20390;-65
2024/02/09 04:33:45;;;;;;;22.63;11.48;;;3.90;99.90;;;;;;5057610;28;20042;-65
2024/02/09 04:36:11;;;;;;;20.15;11.23;;;3.90;99.90;;;;;;5060090;28;20076;-64
2024/02/09 04:38:40;;;;;;;20.88;11.52;;;3.90;99.90;;;;;;5048102;28;20033;-65
2024/02/09 04:41:07;;;;;;;20.92;11.20;;;3.90;99.90;;;;;;5050205;28;20051;-66
2024/02/09 04:43:32;;;;;;;19.30;10.93;;;3.90;99.90;;;;;;5042947;28;20037;-64
2024/02/09 04:45:59;;;;;;;22.08;12.07;;;4.00;99.90;;;;;;5048142;28;20090;-66
2024/02/09 04:48:24;;;;;;;22.50;11.02;;;4.00;99.90;;;;;;5047153;28;20103;-65
2024/02/09 04:50:50;;;;;;;20.88;10.75;;;4.00;99.90;;;;;;5061682;28;20036;-64
2024/02/09 04:53:15;;;;;;;21.38;11.85;;;4.00;99.90;;;;;;5042115;28;20044;-64
2024/02/09 04:55:42;;;;;;;23.42;12.63;;;4.00;99.90;;;;;;5055136;28;20083;-65
2024/02/09 04:58:07;;;;;;;20.88;11.82;;;4.10;99.90;;;;;;5059198;28;20041;-65
2024/02/09 05:00:36;;;;;;;22.40;11.85;;;4.10;99.90;;;;;;5050329;28;20108;-64
2024/02/09 05:03:03;;;;;;;22.20;12.13;;;4.10;99.90;;;;;;5049897;28;20052;-65
2024/02/09 05:05:30;;;;;;;20.60;11.32;;;4.10;99.90;;;;;;5050700;28;20563;-64
2024/02/09 05:07:56;;;;;;;23.73;12.43;;;4.10;99.90;;;;;;5048200;28;20044;-65
2024/02/09 05:10:22;;;;;;;22.70;12.38;;;4.10;99.90;;;;;;5049229;28;20037;-65
2024/02/09 05:12:47;;;;;;;21.35;12.27;;;4.20;99.90;;;;;;5055526;28;20064;-65
2024/02/09 05:15:13;;;;;;;23.67;13.02;;;4.20;99.90;;;;;;5051059;28;20408;-65
2024/02/09 05:17:39;;;;;;;23.73;13.23;;;4.20;99.90;;;;;;5032446;28;20177;-64
2024/02/09 05:20:06;;;;;;;24.02;12.43;;;4.20;99.90;;;;;;5057369;28;20217;-65
2024/02/09 05:22:31;;;;;;;21.75;12.30;;;4.20;99.90;;;;;;5048838;28;20047;-65
2024/02/09 05:24:57;;;;;;;22.23;12.23;;;4.20;99.90;;;;;;5047723;28;20124;-65
2024/02/09 05:27:22;;;;;;;26.92;13.15;;;4.30;99.90;;;;;;5032444;28;20041;-65
2024/02/09 05:29:48;;;;;;;23.20;12.05;;;4.30;99.90;;;;;;5049418;28;20409;-65
2024/02/09 05:32:14;;;;;;;22.27;12.90;;;4.30;99.90;;;;;;5050668;28;20037;-65
2024/02/09 05:34:44;;;;;;;24.60;13.18;;;4.30;99.90;;;;;;5052487;28;20060;-64
2024/02/09 05:37:12;;;;;;;22.13;12.23;;;4.30;99.90;;;;;;5045561;28;20087;-66
2024/02/09 05:39:42;;;;;;;22.90;12.05;;;4.30;99.90;;;;;;5051508;28;20029;-65
2024/02/09 05:42:07;;;;;;;27.00;12.63;;;4.40;99.90;;;;;;5044342;28;20119;-65
2024/02/09 05:44:33;;;;;;;22.25;12.55;;;4.40;99.90;;;;;;5057470;28;20094;-65
2024/02/09 05:47:00;;;;;;;24.40;12.43;;;4.40;99.90;;;;;;5050999;28;20037;-65
2024/02/09 05:49:26;;;;;;;22.98;12.85;;;4.40;99.90;;;;;;5049681;28;20638;-65
2024/02/09 05:51:52;;;;;;;20.88;11.63;;;4.40;99.90;;;;;;5067043;28;20029;-65
2024/02/09 05:54:18;;;;;;;19.77;12.35;;;4.50;99.90;;;;;;5050988;28;20219;-65
2024/02/09 05:56:46;;;;;;;24.60;12.75;;;4.50;99.90;;;;;;5056833;28;20045;-66
2024/02/09 05:59:13;;;;;;;23.00;12.60;;;4.60;99.90;;;;;;5048370;28;20045;-65
2024/02/09 06:01:38;;;;;;;28.25;12.90;;;4.50;99.90;;;;;;5059947;28;20056;-66
2024/02/09 06:04:04;;;;;;;27.67;13.40;;;4.60;99.90;;;;;;5055798;28;20051;-65
2024/02/09 06:06:30;;;;;;;24.48;13.48;;;4.70;99.90;;;;;;5047662;28;20045;-65
2024/02/09 06:08:56;;;;;;;29.38;14.38;;;4.60;99.90;;;;;;5058499;28;20118;-65
2024/02/09 06:11:21;;;;;;;26.70;13.75;;;4.70;99.90;;;;;;5045047;28;20098;-65
2024/02/09 06:13:47;;;;;;;25.58;12.85;;;4.70;99.90;;;;;;5052200;28;20443;-65
2024/02/09 06:16:20;;;;;;;26.05;13.23;;;4.70;99.90;;;;;;5040897;28;20072;-65
2024/02/09 06:18:46;;;;;;;27.05;14.65;;;4.70;99.90;;;;;;5048529;28;20502;-65
2024/02/09 06:21:16;;;;;;;30.58;14.15;;;4.80;99.90;;;;;;5058195;28;20120;-65
2024/02/09 06:23:44;;;;;;;22.48;12.48;;;4.80;99.90;;;;;;5054388;28;20042;-65
2024/02/09 06:26:10;;;;;;;29.73;14.15;;;4.80;99.90;;;;;;5054807;28;20052;-65
2024/02/09 06:28:36;;;;;;;24.88;12.63;;;4.90;99.90;;;;;;5050709;28;20041;-65
2024/02/09 06:31:02;;;;;;;27.50;13.88;;;4.90;99.90;;;;;;5059051;28;20029;-65
2024/02/09 06:33:27;;;;;;;25.75;13.73;;;4.90;99.90;;;;;;5052790;28;20040;-65
2024/02/09 06:35:54;;;;;;;27.20;13.68;;;4.90;99.90;;;;;;5057034;28;20499;-65
2024/02/09 06:38:20;;;;;;;25.55;13.68;;;4.90;99.90;;;;;;5053357;28;20048;-65
2024/02/09 06:40:47;;;;;;;26.92;13.80;;;5.00;99.90;;;;;;5060694;28;20041;-66
2024/02/09 06:43:17;;;;;;;28.13;14.00;;;5.00;99.90;;;;;;5050209;28;20041;-65
2024/02/09 06:45:43;;;;;;;27.42;13.93;;;5.10;99.90;;;;;;5051651;28;20049;-65
2024/02/09 06:48:09;;;;;;;32.20;14.02;;;5.10;99.90;;;;;;5056215;28;20483;-65
2024/02/09 06:50:35;;;;;;;33.58;14.50;;;5.20;99.90;;;;;;5064627;28;20056;-65
2024/02/09 06:53:07;;;;;;;43.65;16.27;;;5.30;99.90;;;;;;5064553;28;20033;-65
2024/02/09 06:55:33;;;;;;;34.00;15.45;;;5.40;99.90;;;;;;5063461;28;20078;-66
2024/02/09 06:57:59;;;;;;;38.72;15.68;;;5.50;99.90;;;;;;5053970;28;20103;-66
2024/02/09 07:00:28;;;;;;;37.67;16.00;;;5.60;99.90;;;;;;5050920;28;20552;-66
2024/02/09 07:02:55;;;;;;;40.05;15.77;;;5.80;99.90;;;;;;5057628;28;20377;-66
2024/02/09 07:05:22;;;;;;;40.75;14.70;;;5.80;99.90;;;;;;5061730;28;20412;-65
2024/02/09 07:07:49;;;;;;;37.30;15.13;;;5.90;99.90;;;;;;5060435;28;20094;-66
2024/02/09 07:10:17;;;;;;;42.00;15.45;;;6.00;99.90;;;;;;5058675;28;20115;-66
2024/02/09 07:12:45;;;;;;;32.88;13.93;;;6.10;99.90;;;;;;5051714;28;20033;-65
2024/02/09 07:15:14;;;;;;;28.90;12.13;;;6.10;99.90;;;;;;5050119;28;20459;-66
2024/02/09 07:17:40;;;;;;;31.73;12.55;;;6.20;99.90;;;;;;5052630;28;20416;-67
2024/02/09 07:20:09;;;;;;;25.70;11.80;;;6.30;99.90;;;;;;5063436;28;20091;-66
2024/02/09 07:22:35;;;;;;;25.85;11.85;;;6.50;99.90;;;;;;5050471;28;20385;-66
2024/02/09 07:25:01;;;;;;;25.85;11.05;;;6.70;99.90;;;;;;5061472;28;20047;-67
2024/02/09 07:27:28;;;;;;;25.65;10.02;;;6.80;99.90;;;;;;5046483;28;20064;-66
2024/02/09 07:29:54;;;;;;;25.85;10.43;;;6.90;99.90;;;;;;5061315;28;20480;-67
2024/02/09 07:32:19;;;;;;;26.65;11.13;;;7.00;99.90;;;;;;5054814;28;20036;-67
2024/02/09 07:34:45;;;;;;;29.17;11.65;;;7.20;99.90;;;;;;5061201;28;20170;-67
2024/02/09 07:37:11;;;;;;;24.30;11.13;;;7.30;99.90;;;;;;5054714;28;20041;-67
2024/02/09 07:39:37;;;;;;;21.63;10.35;;;7.40;99.90;;;;;;5054162;28;20120;-67
2024/02/09 07:42:04;;;;;;;25.08;11.13;;;7.60;99.90;;;;;;5054754;28;20041;-67
2024/02/09 07:44:30;;;;;;;27.45;11.25;;;7.70;99.90;;;;;;5060552;28;20510;-66
2024/02/09 07:46:56;;;;;;;24.65;10.63;;;7.70;99.90;;;;;;5057134;28;20040;-67
2024/02/09 07:49:24;;;;;;;25.73;11.45;;;7.80;99.90;;;;;;5048039;28;20124;-67
2024/02/09 07:51:50;;;;;;;24.30;11.35;;;7.80;99.90;;;;;;5044127;28;20048;-65
2024/02/09 07:54:17;;;;;;;26.00;11.50;;;7.80;99.90;;;;;;5053365;28;20041;-66
2024/02/09 07:56:42;;;;;;;23.35;10.80;;;7.90;99.90;;;;;;5042628;28;20132;-67
2024/02/09 07:59:08;;;;;;;25.10;10.30;;;7.90;99.90;;;;;;5056995;28;20053;-66
2024/02/09 08:01:33;;;;;;;21.55;10.63;;;7.90;99.90;;;;;;5052070;28;20045;-67
2024/02/09 08:03:59;;;;;;;22.60;10.25;;;8.00;99.90;;;;;;5062450;28;20036;-67
2024/02/09 08:06:25;;;;;;;19.63;10.80;;;8.00;99.90;;;;;;5054538;28;20082;-67
2024/02/09 08:08:53;;;;;;;24.10;10.27;;;8.10;99.90;;;;;;5044162;28;20114;-67
2024/02/09 08:11:20;;;;;;;22.42;9.80;;;8.00;99.90;;;;;;5042019;28;20068;-67
2024/02/09 08:13:45;;;;;;;23.35;9.38;;;8.00;99.90;;;;;;5056345;28;20029;-67
2024/02/09 08:16:11;;;;;;;22.35;10.20;;;8.10;99.90;;;;;;5059082;28;20431;-66
2024/02/09 08:18:36;;;;;;;20.48;9.43;;;8.10;99.90;;;;;;5057310;28;20506;-66
2024/02/09 08:21:02;;;;;;;18.65;8.52;;;8.10;99.90;;;;;;5050126;28;20041;-67
2024/02/09 08:23:29;;;;;;;17.75;9.48;;;8.10;99.90;;;;;;5041011;28;20135;-67
2024/02/09 08:25:55;;;;;;;21.45;9.23;;;8.20;99.90;;;;;;5044385;28;20037;-64
2024/02/09 08:28:20;;;;;;;19.13;8.35;;;8.20;99.90;;;;;;5049198;28;20084;-65
2024/02/09 08:30:46;;;;;;;18.85;8.43;;;8.20;99.90;;;;;;5047729;28;20457;-67
2024/02/09 08:33:12;;;;;;;16.13;7.63;;;8.20;99.90;;;;;;5049891;28;20032;-67
2024/02/09 08:35:40;;;;;;;21.23;8.20;;;8.30;99.90;;;;;;5046305;28;20036;-68
2024/02/09 08:38:07;;;;;;;16.15;7.50;;;8.30;99.90;;;;;;5045427;28;20045;-68
2024/02/09 08:40:33;;;;;;;23.88;8.15;;;8.30;99.90;;;;;;5048905;28;20442;-65
2024/02/09 08:43:00;;;;;;;17.55;7.70;;;8.40;99.90;;;;;;5048078;28;20488;-65
2024/02/09 08:45:27;;;;;;;19.30;7.55;;;8.50;99.90;;;;;;5049092;28;20043;-67
2024/02/09 08:47:52;;;;;;;15.68;7.68;;;8.50;99.90;;;;;;5043745;28;20033;-67
2024/02/09 08:50:18;;;;;;;19.60;7.45;;;8.50;99.90;;;;;;5049667;28;20033;-67
2024/02/09 08:52:44;;;;;;;17.55;7.20;;;8.60;99.90;;;;;;5047616;28;20053;-67
2024/02/09 08:55:10;;;;;;;22.60;8.18;;;8.50;99.90;;;;;;5038756;28;20044;-64
2024/02/09 08:57:35;;;;;;;15.80;7.28;;;8.50;99.90;;;;;;5047069;28;20036;-64
2024/02/09 09:00:05;;;;;;;13.05;6.90;;;8.60;99.90;;;;;;5041712;28;20448;-67
2024/02/09 09:02:30;;;;;;;16.33;6.53;;;8.60;99.90;;;;;;5039825;28;20053;-67
2024/02/09 09:04:57;;;;;;;17.48;7.57;;;8.60;99.90;;;;;;5045638;28;20385;-67
2024/02/09 09:07:23;;;;;;;14.25;6.55;;;8.60;99.90;;;;;;5041809;28;20036;-67
2024/02/09 09:09:48;;;;;;;16.58;7.05;;;8.60;99.90;;;;;;5045988;28;20408;-67
2024/02/09 09:12:14;;;;;;;16.48;7.40;;;8.70;99.90;;;;;;5049616;28;20041;-64
2024/02/09 09:14:40;;;;;;;17.60;6.65;;;8.70;99.90;;;;;;5048315;28;20451;-67
2024/02/09 09:17:06;;;;;;;17.38;6.63;;;8.70;99.90;;;;;;5044632;28;20950;-67
2024/02/09 09:19:31;;;;;;;12.25;6.43;;;8.80;99.90;;;;;;5043643;28;20069;-67
2024/02/09 09:21:57;;;;;;;14.15;6.72;;;8.90;99.90;;;;;;5042553;28;20033;-67
2024/02/09 09:24:23;;;;;;;17.30;6.55;;;8.90;99.90;;;;;;5039041;28;20492;-67
2024/02/09 09:26:49;;;;;;;15.80;6.68;;;8.90;99.90;;;;;;5041528;28;20036;-65
2024/02/09 09:29:15;;;;;;;13.75;6.55;;;8.90;99.90;;;;;;5031201;28;20044;-64
2024/02/09 09:31:41;;;;;;;14.38;6.32;;;8.90;99.90;;;;;;5036466;28;20104;-67
2024/02/09 09:34:08;;;;;;;12.73;6.15;;;8.90;99.90;;;;;;5038095;28;20120;-67
2024/02/09 09:36:34;;;;;;;14.35;6.25;;;9.00;99.90;;;;;;5036068;28;20123;-67
2024/02/09 09:39:02;;;;;;;14.45;6.55;;;9.00;99.90;;;;;;5038932;28;20043;-65
2024/02/09 09:41:28;;;;;;;14.15;5.70;;;9.00;99.90;;;;;;5032610;28;20041;-67
2024/02/09 09:43:54;;;;;;;14.20;6.15;;;9.00;99.90;;;;;;5033715;28;20130;-67
2024/02/09 09:46:22;;;;;;;15.65;6.35;;;9.10;99.90;;;;;;5039426;28;20098;-64
2024/02/09 09:48:52;;;;;;;12.38;5.85;;;9.20;99.90;;;;;;5046489;28;20041;-67
2024/02/09 09:51:20;;;;;;;15.00;6.30;;;9.20;99.90;;;;;;5042747;28;20037;-67
2024/02/09 09:53:50;;;;;;;11.65;5.95;;;9.20;99.90;;;;;;5040751;28;20032;-67
2024/02/09 09:56:18;;;;;;;16.92;6.32;;;9.30;99.90;;;;;;5042795;28;20084;-67
2024/02/09 09:58:45;;;;;;;13.13;6.32;;;9.30;99.90;;;;;;5039983;28;20082;-63
2024/02/09 10:01:12;;;;;;;14.27;6.13;;;9.40;99.90;;;;;;5036787;28;20064;-67
2024/02/09 10:03:42;;;;;;;13.70;6.00;;;9.40;99.90;;;;;;5044242;28;20041;-67
2024/02/09 10:06:08;;;;;;;13.73;6.03;;;9.40;99.90;;;;;;5044881;28;20041;-67
2024/02/09 10:08:38;;;;;;;14.60;5.85;;;9.30;99.90;;;;;;5045382;28;20507;-66
2024/02/09 10:11:06;;;;;;;16.58;6.43;;;9.30;99.90;;;;;;5044717;28;20045;-65
2024/02/09 10:13:37;;;;;;;15.57;6.15;;;9.30;99.90;;;;;;5044254;28;20051;-65
2024/02/09 10:16:03;;;;;;;16.08;6.85;;;9.40;99.90;;;;;;5034894;28;20720;-68
2024/02/09 10:18:33;;;;;;;13.52;6.45;;;9.40;99.90;;;;;;5038973;28;20049;-67
2024/02/09 10:21:00;;;;;;;13.38;6.05;;;9.50;99.90;;;;;;5041945;28;20052;-67
2024/02/09 10:23:29;;;;;;;12.82;5.63;;;9.50;99.90;;;;;;5045389;28;20041;-65
2024/02/09 10:26:02;;;;;;;12.98;6.00;;;9.50;99.90;;;;;;5044636;28;20759;-66
2024/02/09 10:28:29;;;;;;;11.05;5.45;;;9.50;99.90;;;;;;5043354;28;20087;-66
2024/02/09 10:30:56;;;;;;;10.77;5.55;;;9.60;99.90;;;;;;5045740;28;20421;-67
2024/02/09 10:33:22;;;;;;;14.65;6.18;;;9.60;99.90;;;;;;5043749;28;20040;-68
2024/02/09 10:35:47;;;;;;;11.35;6.40;;;9.70;99.90;;;;;;5053548;28;20400;-67
2024/02/09 10:38:13;;;;;;;12.15;6.20;;;9.70;99.90;;;;;;5040644;28;20047;-67
2024/02/09 10:40:39;;;;;;;15.30;6.10;;;9.80;99.90;;;;;;5045339;28;20056;-67
2024/02/09 10:43:05;;;;;;;14.13;6.20;;;9.80;99.90;;;;;;5042615;28;20048;-64
2024/02/09 10:45:32;;;;;;;16.67;6.10;;;9.90;99.90;;;;;;5037419;28;20124;-65
2024/02/09 10:48:01;;;;;;;16.38;5.97;;;10.00;99.90;;;;;;5042906;28;20060;-68
2024/02/09 10:50:31;;;;;;;14.98;6.38;;;10.00;99.90;;;;;;5033720;28;20048;-68
2024/02/09 10:53:02;;;;;;;10.90;5.38;;;10.00;99.90;;;;;;5034366;28;20721;-63
2024/02/09 10:55:33;;;;;;;10.50;5.20;;;10.10;99.90;;;;;;5043663;28;20033;-64
2024/02/09 10:57:59;;;;;;;9.45;5.30;;;10.70;99.90;;;;;;5039855;28;20485;-66
2024/02/09 11:00:26;;;;;;;10.07;4.50;;;10.20;99.90;;;;;;5043275;28;20110;-67
2024/02/09 11:02:52;;;;;;;13.07;5.07;;;10.20;99.90;;;;;;5035775;28;20458;-67
2024/02/09 11:05:18;;;;;;;10.45;4.60;;;10.20;99.90;;;;;;5038294;28;20444;-64
2024/02/09 11:07:46;;;;;;;10.18;5.28;;;10.20;99.90;;;;;;5050470;28;20122;-66
2024/02/09 11:10:16;;;;;;;17.13;5.38;;;10.20;99.90;;;;;;5043045;28;20055;-68
2024/02/09 11:12:43;;;;;;;12.73;5.13;;;10.20;99.90;;;;;;5045042;28;20041;-67
2024/02/09 11:15:13;;;;;;;10.35;4.95;;;10.30;99.90;;;;;;5045346;28;20052;-63
2024/02/09 11:17:49;;;;;;;10.23;5.20;;;10.30;99.90;;;;;;5046147;28;20119;-68
2024/02/09 11:20:16;;;;;;;9.35;4.88;;;10.40;99.90;;;;;;5057231;28;20495;-67
2024/02/09 11:22:47;;;;;;;13.77;5.40;;;10.50;99.90;;;;;;5047788;28;20040;-67
2024/02/09 11:25:22;;;;;;;11.02;5.10;;;10.60;99.90;;;;;;5043478;28;20507;-67
2024/02/09 11:27:51;;;;;;;12.63;4.82;;;10.60;99.90;;;;;;5041292;28;20643;-68
2024/02/09 11:30:21;;;;;;;13.20;5.30;;;10.60;99.90;;;;;;5049939;28;20043;-67
2024/02/09 11:32:50;;;;;;;11.48;4.63;;;10.60;99.90;;;;;;5036079;28;20028;-69
2024/02/09 11:35:16;;;;;;;12.90;5.55;;;10.60;99.90;;;;;;5033326;28;20107;-65
2024/02/09 11:37:46;;;;;;;11.18;4.85;;;10.60;99.90;;;;;;5042874;28;20120;-67
2024/02/09 11:40:13;;;;;;;11.27;5.40;;;10.60;99.90;;;;;;5035351;28;20108;-69
2024/02/09 11:42:39;;;;;;;12.93;4.90;;;10.60;99.90;;;;;;5043902;28;20090;-69
2024/02/09 11:45:06;;;;;;;9.82;4.53;;;10.70;99.90;;;;;;5045099;28;20474;-65
2024/02/09 11:47:32;;;;;;;11.45;4.95;;;10.70;99.90;;;;;;5041652;28;20049;-67
2024/02/09 11:49:58;;;;;;;11.48;4.88;;;10.80;99.90;;;;;;5047147;28;20097;-68
2024/02/09 11:52:23;;;;;;;9.73;4.68;;;11.00;99.90;;;;;;5037002;28;20034;-67
2024/02/09 11:54:49;;;;;;;11.10;5.00;;;11.00;99.90;;;;;;5037115;28;20827;-65
2024/02/09 11:57:15;;;;;;;10.23;4.57;;;11.10;99.90;;;;;;5037266;28;20048;-66
2024/02/09 11:59:41;;;;;;;10.55;5.15;;;11.00;99.90;;;;;;5042557;28;20144;-67
2024/02/09 12:02:07;;;;;;;14.00;5.15;;;11.10;99.90;;;;;;5041844;28;20171;-66
2024/02/09 12:04:32;;;;;;;11.05;5.13;;;11.10;99.90;;;;;;5040187;28;20045;-69
2024/02/09 12:06:59;;;;;;;10.27;4.32;;;11.10;99.90;;;;;;5039907;28;20544;-68
2024/02/09 12:09:31;;;;;;;8.60;4.47;;;11.20;99.90;;;;;;5044732;28;20040;-66
2024/02/09 12:11:57;;;;;;;11.40;4.63;;;11.10;99.90;;;;;;5043255;28;20089;-68
2024/02/09 12:14:23;;;;;;;9.90;4.40;;;11.10;99.90;;;;;;5045083;28;20040;-68
2024/02/09 12:16:50;;;;;;;12.65;4.78;;;11.10;99.90;;;;;;5031797;28;20104;-66
2024/02/09 12:19:15;;;;;;;9.15;4.60;;;11.10;99.90;;;;;;5039247;28;20412;-65
2024/02/09 12:22:04;;;;;;;8.50;4.05;;;11.00;99.90;;;;;;5037886;28;20041;-69
2024/02/09 12:24:31;;;;;;;9.50;3.85;;;11.00;99.90;;;;;;5044610;28;20048;-65
2024/02/09 12:26:57;;;;;;;10.98;4.07;;;11.00;99.90;;;;;;5042948;28;20488;-70
2024/02/09 12:29:24;;;;;;;10.68;3.67;;;10.90;99.90;;;;;;5038728;28;20037;-69
2024/02/09 12:31:50;;;;;;;8.18;4.00;;;10.90;99.90;;;;;;5021752;28;20041;-68
2024/02/09 12:34:16;;;;;;;8.82;4.43;;;10.90;99.90;;;;;;5041589;28;20095;-66
2024/02/09 12:36:55;;;;;;;12.88;3.90;;;10.90;99.90;;;;;;5041275;28;20590;-68
2024/02/09 12:39:22;;;;;;;9.55;3.83;;;10.90;99.90;;;;;;5047715;28;20040;-69
2024/02/09 12:42:01;;;;;;;6.97;3.75;;;10.90;99.90;;;;;;5049216;28;20102;-69
2024/02/09 12:44:29;;;;;;;6.88;3.40;;;10.90;99.90;;;;;;5056011;28;20045;-65
2024/02/09 12:46:59;;;;;;;8.75;3.83;;;10.90;99.90;;;;;;5046006;28;20059;-69
2024/02/09 12:49:26;;;;;;;8.75;3.38;;;10.90;99.90;;;;;;5034171;28;20069;-66
2024/02/09 12:51:52;;;;;;;8.32;3.38;;;11.00;99.90;;;;;;5054871;28;20492;-69
2024/02/09 12:54:17;;;;;;;10.32;3.90;;;11.00;99.90;;;;;;5050395;28;20052;-68
2024/02/09 12:56:43;;;;;;;9.93;3.60;;;11.00;99.90;;;;;;5047365;28;20234;-68
2024/02/09 12:59:09;;;;;;;10.90;3.58;;;11.00;99.90;;;;;;5044747;28;20519;-68
2024/02/09 13:01:35;;;;;;;14.77;3.80;;;11.10;99.90;;;;;;5049652;28;20037;-65
2024/02/09 13:04:01;;;;;;;10.65;3.90;;;11.10;99.90;;;;;;5052512;28;20044;-65
2024/02/09 13:06:26;;;;;;;8.02;3.83;;;11.00;99.90;;;;;;5043951;28;20045;-68
2024/02/09 13:08:56;;;;;;;14.80;4.00;;;11.00;99.90;;;;;;5058175;28;20059;-68
2024/02/09 13:11:24;;;;;;;7.72;3.90;;;11.00;99.90;;;;;;5046954;28;20044;-69
2024/02/09 13:13:50;;;;;;;7.95;4.15;;;11.00;99.90;;;;;;5050253;28;20064;-68
2024/02/09 13:16:17;;;;;;;10.27;4.00;;;11.00;99.90;;;;;;5049421;28;20045;-67
2024/02/09 13:18:42;;;;;;;11.07;4.05;;;11.00;99.90;;;;;;5047602;28;20052;-68
2024/02/09 13:21:08;;;;;;;9.23;4.20;;;11.00;99.90;;;;;;5047009;28;20052;-68
2024/02/09 13:23:34;;;;;;;10.05;4.57;;;11.00;99.90;;;;;;5040087;28;20168;-68
2024/02/09 13:26:00;;;;;;;9.50;4.40;;;11.00;99.90;;;;;;5048568;28;20098;-67
2024/02/09 13:28:29;;;;;;;9.60;3.95;;;10.90;99.90;;;;;;5046225;28;20048;-69
2024/02/09 13:30:56;;;;;;;10.35;4.47;;;10.90;99.90;;;;;;5050740;28;20051;-69
2024/02/09 13:33:21;;;;;;;9.90;4.00;;;10.90;99.90;;;;;;5053127;28;20040;-69
2024/02/09 13:35:47;;;;;;;9.35;4.22;;;11.00;99.90;;;;;;5052017;28;20033;-69
2024/02/09 13:38:13;;;;;;;7.93;4.47;;;11.10;99.90;;;;;;5050729;28;20041;-69
2024/02/09 13:40:39;;;;;;;11.27;4.95;;;11.10;99.90;;;;;;5049166;28;20405;-68
2024/02/09 13:43:05;;;;;;;11.07;4.60;;;11.20;99.90;;;;;;5053321;28;20045;-69
2024/02/09 13:45:30;;;;;;;9.43;4.00;;;11.20;99.90;;;;;;5053221;28;20045;-69
2024/02/09 13:47:57;;;;;;;8.63;4.07;;;11.20;99.90;;;;;;5033201;28;20077;-66
2024/02/09 13:50:26;;;;;;;7.43;3.65;;;11.20;99.90;;;;;;5050370;28;20128;-69
2024/02/09 13:52:53;;;;;;;8.60;4.30;;;11.20;99.90;;;;;;5045530;28;20071;-68
2024/02/09 13:55:21;;;;;;;8.50;4.43;;;11.10;99.90;;;;;;5050774;28;20041;-69
2024/02/09 13:57:50;;;;;;;9.68;4.22;;;11.10;99.90;;;;;;5044008;28;20040;-68
2024/02/09 14:00:17;;;;;;;8.63;4.22;;;11.10;99.90;;;;;;5052862;28;20045;-67
2024/02/09 14:02:44;;;;;;;10.40;4.50;;;11.10;99.90;;;;;;5055714;28;20033;-68
2024/02/09 14:05:09;;;;;;;8.00;3.88;;;11.10;99.90;;;;;;5065457;28;20472;-69
2024/02/09 14:07:39;;;;;;;7.18;4.10;;;11.10;99.90;;;;;;5044338;28;20069;-68
2024/02/09 14:10:09;;;;;;;7.93;3.65;;;11.10;99.90;;;;;;5051897;28;20424;-66
2024/02/09 14:12:35;;;;;;;6.25;3.30;;;11.20;99.90;;;;;;5050976;28;20561;-66
2024/02/09 14:15:01;;;;;;;9.85;3.40;;;11.20;99.90;;;;;;5053128;28;20037;-69
2024/02/09 14:17:28;;;;;;;9.65;3.60;;;11.20;99.90;;;;;;5049679;28;20037;-69
2024/02/09 14:19:53;;;;;;;7.60;3.70;;;11.20;99.90;;;;;;5052998;28;20029;-69
2024/02/09 14:22:19;;;;;;;6.75;3.83;;;11.20;99.90;;;;;;5052360;28;20090;-66
2024/02/09 14:24:46;;;;;;;9.25;3.92;;;11.20;99.90;;;;;;5051625;28;20056;-69
2024/02/09 14:27:14;;;;;;;8.32;3.88;;;11.20;99.90;;;;;;5044856;28;20463;-69